sensor_id;sensor_type;location;lat;lon;timestamp;P1;durP1;ratioP1;P2;durP2;ratioP2
9106;SDS011;4589;48.690;8.952;2023-03-08T00:01:30;10.60;;;6.40;;
9106;SDS011;4589;48.690;8.952;2023-03-08T00:03:56;10.13;;;6.90;;
9106;SDS011;4589;48.690;8.952;2023-03-08T00:06:23;9.43;;;6.97;;
9106;SDS011;4589;48.690;8.952;2023-03-08T00:08:52;12.50;;;6.67;;
9106;SDS011;4589;48.690;8.952;2023-03-08T00:11:19;7.63;;;6.07;;
9106;SDS011;4589;48.690;8.952;2023-03-08T00:13:45;8.20;;;6.07;;
9106;SDS011;4589;48.690;8.952;2023-03-08T00:16:11;12.57;;;6.30;;
9106;SDS011;4589;48.690;8.952;2023-03-08T00:18:37;9.67;;;6.90;;
9106;SDS011;4589;48.690;8.952;2023-03-08T00:21:07;9.00;;;6.20;;
9106;SDS011;4589;48.690;8.952;2023-03-08T00:23:35;14.00;;;7.70;;
9106;SDS011;4589;48.690;8.952;2023-03-08T00:26:01;13.27;;;7.67;;
9106;SDS011;4589;48.690;8.952;2023-03-08T00:28:28;16.60;;;7.20;;
9106;SDS011;4589;48.690;8.952;2023-03-08T00:31:01;12.00;;;7.10;;
9106;SDS011;4589;48.690;8.952;2023-03-08T00:33:34;12.17;;;7.30;;
9106;SDS011;4589;48.690;8.952;2023-03-08T00:36:02;17.13;;;7.33;;
9106;SDS011;4589;48.690;8.952;2023-03-08T00:38:29;11.27;;;6.20;;
9106;SDS011;4589;48.690;8.952;2023-03-08T00:40:55;9.87;;;6.00;;
9106;SDS011;4589;48.690;8.952;2023-03-08T00:43:21;16.70;;;7.20;;
9106;SDS011;4589;48.690;8.952;2023-03-08T00:45:47;11.60;;;7.30;;
9106;SDS011;4589;48.690;8.952;2023-03-08T00:48:13;11.75;;;7.57;;
9106;SDS011;4589;48.690;8.952;2023-03-08T00:50:39;12.30;;;8.30;;
9106;SDS011;4589;48.690;8.952;2023-03-08T00:53:05;12.60;;;7.67;;
9106;SDS011;4589;48.690;8.952;2023-03-08T00:55:32;11.97;;;7.33;;
9106;SDS011;4589;48.690;8.952;2023-03-08T00:57:58;12.67;;;6.97;;
9106;SDS011;4589;48.690;8.952;2023-03-08T01:00:23;12.67;;;7.70;;
9106;SDS011;4589;48.690;8.952;2023-03-08T01:02:49;13.27;;;7.88;;
9106;SDS011;4589;48.690;8.952;2023-03-08T01:05:16;14.80;;;8.13;;
9106;SDS011;4589;48.690;8.952;2023-03-08T01:07:41;8.90;;;6.63;;
9106;SDS011;4589;48.690;8.952;2023-03-08T01:10:07;10.30;;;7.23;;
9106;SDS011;4589;48.690;8.952;2023-03-08T01:12:34;11.13;;;6.40;;
9106;SDS011;4589;48.690;8.952;2023-03-08T01:15:00;12.77;;;7.63;;
9106;SDS011;4589;48.690;8.952;2023-03-08T01:17:26;12.43;;;8.10;;
9106;SDS011;4589;48.690;8.952;2023-03-08T01:19:52;12.27;;;7.95;;
9106;SDS011;4589;48.690;8.952;2023-03-08T01:22:18;11.43;;;7.13;;
9106;SDS011;4589;48.690;8.952;2023-03-08T01:24:44;16.03;;;8.50;;
9106;SDS011;4589;48.690;8.952;2023-03-08T01:27:10;12.90;;;8.00;;
9106;SDS011;4589;48.690;8.952;2023-03-08T01:29:36;17.60;;;8.97;;
9106;SDS011;4589;48.690;8.952;2023-03-08T01:32:02;11.20;;;7.93;;
9106;SDS011;4589;48.690;8.952;2023-03-08T01:34:28;11.63;;;7.10;;
9106;SDS011;4589;48.690;8.952;2023-03-08T01:36:54;12.00;;;8.20;;
9106;SDS011;4589;48.690;8.952;2023-03-08T01:39:20;13.50;;;8.43;;
9106;SDS011;4589;48.690;8.952;2023-03-08T01:41:46;15.33;;;8.33;;
9106;SDS011;4589;48.690;8.952;2023-03-08T01:44:16;16.48;;;7.63;;
9106;SDS011;4589;48.690;8.952;2023-03-08T01:46:42;10.88;;;7.85;;
9106;SDS011;4589;48.690;8.952;2023-03-08T01:54:13;12.90;;;7.83;;
9106;SDS011;4589;48.690;8.952;2023-03-08T01:56:40;11.68;;;7.35;;
9106;SDS011;4589;48.690;8.952;2023-03-08T01:59:08;11.00;;;7.35;;
9106;SDS011;4589;48.690;8.952;2023-03-08T02:01:35;14.30;;;8.27;;
9106;SDS011;4589;48.690;8.952;2023-03-08T02:04:01;12.43;;;7.60;;
9106;SDS011;4589;48.690;8.952;2023-03-08T02:06:27;13.00;;;7.80;;
9106;SDS011;4589;48.690;8.952;2023-03-08T02:08:53;13.20;;;7.37;;
9106;SDS011;4589;48.690;8.952;2023-03-08T02:11:20;13.52;;;7.80;;
9106;SDS011;4589;48.690;8.952;2023-03-08T02:13:48;10.88;;;7.70;;
9106;SDS011;4589;48.690;8.952;2023-03-08T02:16:14;13.77;;;8.77;;
9106;SDS011;4589;48.690;8.952;2023-03-08T02:18:55;16.85;;;8.75;;
9106;SDS011;4589;48.690;8.952;2023-03-08T02:21:23;15.77;;;7.57;;
9106;SDS011;4589;48.690;8.952;2023-03-08T02:23:50;11.00;;;7.18;;
9106;SDS011;4589;48.690;8.952;2023-03-08T02:26:16;13.47;;;7.67;;
9106;SDS011;4589;48.690;8.952;2023-03-08T02:28:42;12.55;;;7.85;;
9106;SDS011;4589;48.690;8.952;2023-03-08T02:31:08;13.07;;;7.75;;
9106;SDS011;4589;48.690;8.952;2023-03-08T02:33:34;12.15;;;7.45;;
9106;SDS011;4589;48.690;8.952;2023-03-08T02:36:03;14.73;;;7.77;;
9106;SDS011;4589;48.690;8.952;2023-03-08T02:38:30;12.68;;;7.68;;
9106;SDS011;4589;48.690;8.952;2023-03-08T02:40:56;13.70;;;7.63;;
9106;SDS011;4589;48.690;8.952;2023-03-08T02:43:22;12.70;;;7.77;;
9106;SDS011;4589;48.690;8.952;2023-03-08T02:45:48;11.40;;;7.00;;
9106;SDS011;4589;48.690;8.952;2023-03-08T02:48:14;13.30;;;8.15;;
9106;SDS011;4589;48.690;8.952;2023-03-08T02:50:40;12.90;;;7.20;;
9106;SDS011;4589;48.690;8.952;2023-03-08T02:53:06;10.73;;;7.00;;
9106;SDS011;4589;48.690;8.952;2023-03-08T02:55:32;13.67;;;7.70;;
9106;SDS011;4589;48.690;8.952;2023-03-08T02:58:03;14.35;;;7.80;;
9106;SDS011;4589;48.690;8.952;2023-03-08T03:00:29;10.43;;;7.28;;
9106;SDS011;4589;48.690;8.952;2023-03-08T03:02:55;11.67;;;7.83;;
9106;SDS011;4589;48.690;8.952;2023-03-08T03:05:21;13.90;;;7.00;;
9106;SDS011;4589;48.690;8.952;2023-03-08T03:07:47;17.63;;;7.93;;
9106;SDS011;4589;48.690;8.952;2023-03-08T03:10:13;13.60;;;7.30;;
9106;SDS011;4589;48.690;8.952;2023-03-08T03:12:39;15.57;;;7.60;;
9106;SDS011;4589;48.690;8.952;2023-03-08T03:15:05;19.80;;;8.60;;
9106;SDS011;4589;48.690;8.952;2023-03-08T03:17:33;16.40;;;8.37;;
9106;SDS011;4589;48.690;8.952;2023-03-08T03:20:01;10.88;;;7.20;;
9106;SDS011;4589;48.690;8.952;2023-03-08T03:22:28;18.10;;;7.60;;
9106;SDS011;4589;48.690;8.952;2023-03-08T03:24:54;11.60;;;7.10;;
9106;SDS011;4589;48.690;8.952;2023-03-08T03:27:20;14.40;;;7.20;;
9106;SDS011;4589;48.690;8.952;2023-03-08T03:29:46;10.53;;;7.00;;
9106;SDS011;4589;48.690;8.952;2023-03-08T03:32:11;12.60;;;7.27;;
9106;SDS011;4589;48.690;8.952;2023-03-08T03:34:38;12.70;;;7.67;;
9106;SDS011;4589;48.690;8.952;2023-03-08T03:37:04;12.20;;;6.88;;
9106;SDS011;4589;48.690;8.952;2023-03-08T03:39:30;13.13;;;8.00;;
9106;SDS011;4589;48.690;8.952;2023-03-08T03:41:59;14.87;;;7.83;;
9106;SDS011;4589;48.690;8.952;2023-03-08T03:44:25;11.88;;;6.78;;
9106;SDS011;4589;48.690;8.952;2023-03-08T03:46:51;11.43;;;6.77;;
9106;SDS011;4589;48.690;8.952;2023-03-08T03:49:16;12.97;;;7.10;;
9106;SDS011;4589;48.690;8.952;2023-03-08T03:51:43;14.10;;;7.30;;
9106;SDS011;4589;48.690;8.952;2023-03-08T03:54:08;15.13;;;7.83;;
9106;SDS011;4589;48.690;8.952;2023-03-08T03:56:34;12.20;;;7.03;;
9106;SDS011;4589;48.690;8.952;2023-03-08T03:59:00;9.83;;;7.00;;
9106;SDS011;4589;48.690;8.952;2023-03-08T04:01:27;10.25;;;5.93;;
9106;SDS011;4589;48.690;8.952;2023-03-08T04:03:54;13.43;;;7.55;;
9106;SDS011;4589;48.690;8.952;2023-03-08T04:06:21;11.02;;;7.18;;
9106;SDS011;4589;48.690;8.952;2023-03-08T04:08:48;11.25;;;6.43;;
9106;SDS011;4589;48.690;8.952;2023-03-08T04:11:17;12.43;;;6.93;;
9106;SDS011;4589;48.690;8.952;2023-03-08T04:13:44;15.32;;;7.10;;
9106;SDS011;4589;48.690;8.952;2023-03-08T04:16:17;11.57;;;7.93;;
9106;SDS011;4589;48.690;8.952;2023-03-08T04:18:51;14.33;;;7.43;;
9106;SDS011;4589;48.690;8.952;2023-03-08T04:21:18;13.18;;;7.35;;
9106;SDS011;4589;48.690;8.952;2023-03-08T04:23:44;15.67;;;7.70;;
9106;SDS011;4589;48.690;8.952;2023-03-08T04:26:10;22.80;;;6.87;;
9106;SDS011;4589;48.690;8.952;2023-03-08T04:28:37;11.30;;;7.88;;
9106;SDS011;4589;48.690;8.952;2023-03-08T04:31:10;13.90;;;8.53;;
9106;SDS011;4589;48.690;8.952;2023-03-08T04:33:37;12.20;;;8.00;;
9106;SDS011;4589;48.690;8.952;2023-03-08T04:36:03;9.80;;;6.77;;
9106;SDS011;4589;48.690;8.952;2023-03-08T04:38:29;12.98;;;7.18;;
9106;SDS011;4589;48.690;8.952;2023-03-08T04:40:57;10.95;;;6.35;;
9106;SDS011;4589;48.690;8.952;2023-03-08T04:43:29;13.23;;;8.15;;
9106;SDS011;4589;48.690;8.952;2023-03-08T04:45:57;14.35;;;7.50;;
9106;SDS011;4589;48.690;8.952;2023-03-08T04:48:23;13.63;;;7.70;;
9106;SDS011;4589;48.690;8.952;2023-03-08T04:50:55;12.90;;;7.60;;
9106;SDS011;4589;48.690;8.952;2023-03-08T04:53:22;14.85;;;7.50;;
9106;SDS011;4589;48.690;8.952;2023-03-08T04:55:48;22.80;;;12.10;;
9106;SDS011;4589;48.690;8.952;2023-03-08T04:58:14;39.60;;;15.80;;
9106;SDS011;4589;48.690;8.952;2023-03-08T05:00:40;42.60;;;16.50;;
9106;SDS011;4589;48.690;8.952;2023-03-08T05:03:06;17.90;;;10.33;;
9106;SDS011;4589;48.690;8.952;2023-03-08T05:05:32;13.57;;;7.60;;
9106;SDS011;4589;48.690;8.952;2023-03-08T05:07:58;16.33;;;7.57;;
9106;SDS011;4589;48.690;8.952;2023-03-08T05:10:28;12.53;;;8.40;;
9106;SDS011;4589;48.690;8.952;2023-03-08T05:12:54;12.90;;;7.73;;
9106;SDS011;4589;48.690;8.952;2023-03-08T05:15:20;16.30;;;7.70;;
9106;SDS011;4589;48.690;8.952;2023-03-08T05:17:49;14.10;;;8.50;;
9106;SDS011;4589;48.690;8.952;2023-03-08T05:20:15;12.93;;;7.80;;
9106;SDS011;4589;48.690;8.952;2023-03-08T05:22:42;14.10;;;7.85;;
9106;SDS011;4589;48.690;8.952;2023-03-08T05:25:08;11.63;;;6.50;;
9106;SDS011;4589;48.690;8.952;2023-03-08T05:27:36;13.53;;;7.20;;
9106;SDS011;4589;48.690;8.952;2023-03-08T05:30:03;19.17;;;8.63;;
9106;SDS011;4589;48.690;8.952;2023-03-08T05:32:29;12.57;;;8.37;;
9106;SDS011;4589;48.690;8.952;2023-03-08T05:34:54;11.73;;;7.10;;
9106;SDS011;4589;48.690;8.952;2023-03-08T05:37:20;15.00;;;7.60;;
9106;SDS011;4589;48.690;8.952;2023-03-08T05:39:49;15.77;;;8.00;;
9106;SDS011;4589;48.690;8.952;2023-03-08T05:42:15;15.37;;;9.20;;
9106;SDS011;4589;48.690;8.952;2023-03-08T05:44:41;15.60;;;8.00;;
9106;SDS011;4589;48.690;8.952;2023-03-08T05:47:07;15.83;;;8.40;;
9106;SDS011;4589;48.690;8.952;2023-03-08T05:49:33;15.97;;;8.37;;
9106;SDS011;4589;48.690;8.952;2023-03-08T05:51:59;12.00;;;8.43;;
9106;SDS011;4589;48.690;8.952;2023-03-08T05:54:25;15.27;;;8.50;;
9106;SDS011;4589;48.690;8.952;2023-03-08T05:56:51;16.93;;;8.67;;
9106;SDS011;4589;48.690;8.952;2023-03-08T05:59:17;15.40;;;8.10;;
9106;SDS011;4589;48.690;8.952;2023-03-08T06:01:43;12.73;;;7.97;;
9106;SDS011;4589;48.690;8.952;2023-03-08T06:04:09;13.40;;;8.10;;
9106;SDS011;4589;48.690;8.952;2023-03-08T06:06:35;14.90;;;7.20;;
9106;SDS011;4589;48.690;8.952;2023-03-08T06:09:01;18.10;;;7.60;;
9106;SDS011;4589;48.690;8.952;2023-03-08T06:11:26;14.80;;;7.77;;
9106;SDS011;4589;48.690;8.952;2023-03-08T06:13:52;16.40;;;8.03;;
9106;SDS011;4589;48.690;8.952;2023-03-08T06:16:18;16.73;;;7.67;;
9106;SDS011;4589;48.690;8.952;2023-03-08T06:18:44;14.47;;;8.17;;
9106;SDS011;4589;48.690;8.952;2023-03-08T06:21:11;13.43;;;8.30;;
9106;SDS011;4589;48.690;8.952;2023-03-08T06:23:38;16.33;;;8.37;;
9106;SDS011;4589;48.690;8.952;2023-03-08T06:26:05;15.95;;;9.38;;
9106;SDS011;4589;48.690;8.952;2023-03-08T06:28:31;15.53;;;9.77;;
9106;SDS011;4589;48.690;8.952;2023-03-08T06:30:57;17.03;;;10.30;;
9106;SDS011;4589;48.690;8.952;2023-03-08T06:33:25;13.30;;;9.70;;
9106;SDS011;4589;48.690;8.952;2023-03-08T06:35:59;17.10;;;8.57;;
9106;SDS011;4589;48.690;8.952;2023-03-08T06:38:36;12.03;;;7.73;;
9106;SDS011;4589;48.690;8.952;2023-03-08T06:41:03;85.97;;;43.30;;
9106;SDS011;4589;48.690;8.952;2023-03-08T06:43:29;22.13;;;12.77;;
9106;SDS011;4589;48.690;8.952;2023-03-08T06:45:55;17.40;;;11.60;;
9106;SDS011;4589;48.690;8.952;2023-03-08T06:48:21;11.23;;;7.93;;
9106;SDS011;4589;48.690;8.952;2023-03-08T06:50:47;21.33;;;11.60;;
9106;SDS011;4589;48.690;8.952;2023-03-08T06:53:13;18.03;;;9.70;;
9106;SDS011;4589;48.690;8.952;2023-03-08T06:55:39;14.63;;;10.80;;
9106;SDS011;4589;48.690;8.952;2023-03-08T06:58:06;17.93;;;10.47;;
9106;SDS011;4589;48.690;8.952;2023-03-08T07:00:33;19.00;;;11.63;;
9106;SDS011;4589;48.690;8.952;2023-03-08T07:02:59;18.23;;;11.10;;
9106;SDS011;4589;48.690;8.952;2023-03-08T07:05:24;20.37;;;10.03;;
9106;SDS011;4589;48.690;8.952;2023-03-08T07:07:50;21.50;;;9.70;;
9106;SDS011;4589;48.690;8.952;2023-03-08T07:10:17;12.83;;;8.17;;
9106;SDS011;4589;48.690;8.952;2023-03-08T07:12:44;15.50;;;8.37;;
9106;SDS011;4589;48.690;8.952;2023-03-08T07:15:13;15.03;;;8.97;;
9106;SDS011;4589;48.690;8.952;2023-03-08T07:17:41;16.87;;;9.07;;
9106;SDS011;4589;48.690;8.952;2023-03-08T07:20:07;15.10;;;9.43;;
9106;SDS011;4589;48.690;8.952;2023-03-08T07:22:34;14.83;;;8.20;;
9106;SDS011;4589;48.690;8.952;2023-03-08T07:25:00;14.37;;;9.00;;
9106;SDS011;4589;48.690;8.952;2023-03-08T07:27:26;14.83;;;9.30;;
9106;SDS011;4589;48.690;8.952;2023-03-08T07:29:52;14.50;;;8.30;;
9106;SDS011;4589;48.690;8.952;2023-03-08T07:32:18;14.60;;;9.60;;
9106;SDS011;4589;48.690;8.952;2023-03-08T07:34:44;15.77;;;9.50;;
9106;SDS011;4589;48.690;8.952;2023-03-08T07:37:13;13.03;;;8.30;;
9106;SDS011;4589;48.690;8.952;2023-03-08T07:39:40;22.80;;;11.17;;
9106;SDS011;4589;48.690;8.952;2023-03-08T07:42:06;15.67;;;10.47;;
9106;SDS011;4589;48.690;8.952;2023-03-08T07:44:32;16.73;;;8.03;;
9106;SDS011;4589;48.690;8.952;2023-03-08T07:46:58;14.77;;;8.33;;
9106;SDS011;4589;48.690;8.952;2023-03-08T07:49:23;14.33;;;9.90;;
9106;SDS011;4589;48.690;8.952;2023-03-08T07:51:49;13.37;;;9.50;;
9106;SDS011;4589;48.690;8.952;2023-03-08T07:54:17;14.60;;;9.17;;
9106;SDS011;4589;48.690;8.952;2023-03-08T07:56:43;16.27;;;9.17;;
9106;SDS011;4589;48.690;8.952;2023-03-08T07:59:09;16.30;;;9.03;;
9106;SDS011;4589;48.690;8.952;2023-03-08T08:01:35;17.60;;;9.67;;
9106;SDS011;4589;48.690;8.952;2023-03-08T08:04:01;15.57;;;9.60;;
9106;SDS011;4589;48.690;8.952;2023-03-08T08:06:27;16.83;;;9.50;;
9106;SDS011;4589;48.690;8.952;2023-03-08T08:08:54;13.70;;;9.10;;
9106;SDS011;4589;48.690;8.952;2023-03-08T08:11:20;20.03;;;9.97;;
9106;SDS011;4589;48.690;8.952;2023-03-08T08:13:46;18.53;;;9.47;;
9106;SDS011;4589;48.690;8.952;2023-03-08T08:16:15;15.40;;;9.73;;
9106;SDS011;4589;48.690;8.952;2023-03-08T08:18:41;15.90;;;9.73;;
9106;SDS011;4589;48.690;8.952;2023-03-08T08:21:09;17.67;;;11.07;;
9106;SDS011;4589;48.690;8.952;2023-03-08T08:23:40;19.73;;;10.50;;
9106;SDS011;4589;48.690;8.952;2023-03-08T08:26:11;16.33;;;10.50;;
9106;SDS011;4589;48.690;8.952;2023-03-08T08:28:39;16.70;;;10.47;;
9106;SDS011;4589;48.690;8.952;2023-03-08T08:31:07;18.07;;;11.27;;
9106;SDS011;4589;48.690;8.952;2023-03-08T08:33:34;20.80;;;10.13;;
9106;SDS011;4589;48.690;8.952;2023-03-08T08:36:02;19.03;;;10.33;;
9106;SDS011;4589;48.690;8.952;2023-03-08T08:38:29;17.63;;;11.40;;
9106;SDS011;4589;48.690;8.952;2023-03-08T08:40:58;23.77;;;10.43;;
9106;SDS011;4589;48.690;8.952;2023-03-08T08:43:24;21.13;;;10.03;;
9106;SDS011;4589;48.690;8.952;2023-03-08T08:45:52;16.53;;;9.67;;
9106;SDS011;4589;48.690;8.952;2023-03-08T08:48:19;18.90;;;11.17;;
9106;SDS011;4589;48.690;8.952;2023-03-08T08:50:45;21.57;;;11.87;;
9106;SDS011;4589;48.690;8.952;2023-03-08T08:53:10;18.30;;;11.10;;
9106;SDS011;4589;48.690;8.952;2023-03-08T08:55:36;19.53;;;11.13;;
9106;SDS011;4589;48.690;8.952;2023-03-08T08:58:02;19.20;;;11.03;;
9106;SDS011;4589;48.690;8.952;2023-03-08T09:00:29;20.20;;;11.90;;
9106;SDS011;4589;48.690;8.952;2023-03-08T09:02:57;14.30;;;10.03;;
9106;SDS011;4589;48.690;8.952;2023-03-08T09:05:23;18.37;;;11.73;;
9106;SDS011;4589;48.690;8.952;2023-03-08T09:07:51;18.70;;;12.13;;
9106;SDS011;4589;48.690;8.952;2023-03-08T09:10:24;19.60;;;11.70;;
9106;SDS011;4589;48.690;8.952;2023-03-08T09:12:54;16.30;;;11.80;;
9106;SDS011;4589;48.690;8.952;2023-03-08T09:15:20;18.90;;;12.17;;
9106;SDS011;4589;48.690;8.952;2023-03-08T09:17:48;20.50;;;12.20;;
9106;SDS011;4589;48.690;8.952;2023-03-08T09:20:14;20.93;;;12.80;;
9106;SDS011;4589;48.690;8.952;2023-03-08T09:22:40;19.77;;;12.33;;
9106;SDS011;4589;48.690;8.952;2023-03-08T09:25:06;19.43;;;12.70;;
9106;SDS011;4589;48.690;8.952;2023-03-08T09:27:33;17.10;;;10.97;;
9106;SDS011;4589;48.690;8.952;2023-03-08T09:29:59;24.03;;;12.50;;
9106;SDS011;4589;48.690;8.952;2023-03-08T09:32:25;22.60;;;12.07;;
9106;SDS011;4589;48.690;8.952;2023-03-08T09:34:51;13.50;;;10.00;;
9106;SDS011;4589;48.690;8.952;2023-03-08T09:37:18;19.50;;;12.10;;
9106;SDS011;4589;48.690;8.952;2023-03-08T09:39:43;20.57;;;11.70;;
9106;SDS011;4589;48.690;8.952;2023-03-08T09:42:22;19.17;;;11.87;;
9106;SDS011;4589;48.690;8.952;2023-03-08T09:56:04;16.63;;;9.73;;
9106;SDS011;4589;48.690;8.952;2023-03-08T09:58:40;13.13;;;8.80;;
9106;SDS011;4589;48.690;8.952;2023-03-08T10:07:12;12.00;;;8.00;;
9106;SDS011;4589;48.690;8.952;2023-03-08T10:09:54;12.63;;;8.37;;
9106;SDS011;4589;48.690;8.952;2023-03-08T10:12:32;10.87;;;6.87;;
9106;SDS011;4589;48.690;8.952;2023-03-08T10:15:08;11.73;;;8.50;;
9106;SDS011;4589;48.690;8.952;2023-03-08T10:17:45;12.10;;;6.90;;
9106;SDS011;4589;48.690;8.952;2023-03-08T10:20:21;9.63;;;7.03;;
9106;SDS011;4589;48.690;8.952;2023-03-08T10:23:00;10.27;;;7.67;;
9106;SDS011;4589;48.690;8.952;2023-03-08T10:25:34;15.33;;;6.50;;
9106;SDS011;4589;48.690;8.952;2023-03-08T10:28:01;9.60;;;6.40;;
9106;SDS011;4589;48.690;8.952;2023-03-08T10:30:34;10.43;;;7.20;;
9106;SDS011;4589;48.690;8.952;2023-03-08T10:33:09;5.30;;;4.47;;
9106;SDS011;4589;48.690;8.952;2023-03-08T10:38:03;4.20;;;3.10;;
9106;SDS011;4589;48.690;8.952;2023-03-08T10:40:29;4.03;;;2.20;;
9106;SDS011;4589;48.690;8.952;2023-03-08T10:43:01;3.47;;;2.33;;
9106;SDS011;4589;48.690;8.952;2023-03-08T10:45:29;2.13;;;1.93;;
9106;SDS011;4589;48.690;8.952;2023-03-08T10:47:59;1.90;;;1.60;;
9106;SDS011;4589;48.690;8.952;2023-03-08T10:50:27;2.53;;;2.07;;
9106;SDS011;4589;48.690;8.952;2023-03-08T10:53:07;2.20;;;1.80;;
9106;SDS011;4589;48.690;8.952;2023-03-08T10:55:41;3.47;;;1.63;;
9106;SDS011;4589;48.690;8.952;2023-03-08T10:58:22;1.43;;;1.30;;
9106;SDS011;4589;48.690;8.952;2023-03-08T11:00:54;3.70;;;2.00;;
9106;SDS011;4589;48.690;8.952;2023-03-08T11:03:22;2.30;;;1.80;;
9106;SDS011;4589;48.690;8.952;2023-03-08T11:05:59;5.17;;;1.80;;
9106;SDS011;4589;48.690;8.952;2023-03-08T11:08:37;1.83;;;1.60;;
9106;SDS011;4589;48.690;8.952;2023-03-08T11:11:06;2.10;;;1.90;;
9106;SDS011;4589;48.690;8.952;2023-03-08T11:13:43;1.70;;;1.40;;
9106;SDS011;4589;48.690;8.952;2023-03-08T11:24:22;1.70;;;1.53;;
9106;SDS011;4589;48.690;8.952;2023-03-08T11:30:06;3.40;;;1.70;;
9106;SDS011;4589;48.690;8.952;2023-03-08T11:35:22;1.97;;;1.43;;
9106;SDS011;4589;48.690;8.952;2023-03-08T11:37:57;1.50;;;1.20;;
9106;SDS011;4589;48.690;8.952;2023-03-08T11:40:41;2.90;;;1.60;;
9106;SDS011;4589;48.690;8.952;2023-03-08T12:01:40;2.30;;;1.50;;
9106;SDS011;4589;48.690;8.952;2023-03-08T12:04:16;2.37;;;2.17;;
9106;SDS011;4589;48.690;8.952;2023-03-08T12:06:45;3.20;;;1.80;;
9106;SDS011;4589;48.690;8.952;2023-03-08T12:09:23;2.77;;;1.80;;
9106;SDS011;4589;48.690;8.952;2023-03-08T12:12:33;1.53;;;1.43;;
9106;SDS011;4589;48.690;8.952;2023-03-08T12:20:39;1.80;;;1.43;;
9106;SDS011;4589;48.690;8.952;2023-03-08T12:23:15;1.50;;;1.23;;
9106;SDS011;4589;48.690;8.952;2023-03-08T12:25:43;6.70;;;1.40;;
9106;SDS011;4589;48.690;8.952;2023-03-08T12:28:30;3.37;;;1.47;;
9106;SDS011;4589;48.690;8.952;2023-03-08T12:31:12;2.20;;;1.47;;
9106;SDS011;4589;48.690;8.952;2023-03-08T12:33:47;1.93;;;1.40;;
9106;SDS011;4589;48.690;8.952;2023-03-08T12:36:13;1.53;;;1.27;;
9106;SDS011;4589;48.690;8.952;2023-03-08T12:38:39;3.60;;;1.57;;
9106;SDS011;4589;48.690;8.952;2023-03-08T12:41:20;1.67;;;1.23;;
9106;SDS011;4589;48.690;8.952;2023-03-08T12:44:03;1.60;;;1.27;;
9106;SDS011;4589;48.690;8.952;2023-03-08T12:49:50;1.77;;;1.40;;
9106;SDS011;4589;48.690;8.952;2023-03-08T12:54:56;1.77;;;1.33;;
9106;SDS011;4589;48.690;8.952;2023-03-08T12:57:46;1.93;;;1.63;;
9106;SDS011;4589;48.690;8.952;2023-03-08T13:03:00;1.40;;;1.30;;
9106;SDS011;4589;48.690;8.952;2023-03-08T13:16:05;1.60;;;1.37;;
9106;SDS011;4589;48.690;8.952;2023-03-08T13:18:42;1.60;;;1.17;;
9106;SDS011;4589;48.690;8.952;2023-03-08T13:21:24;1.80;;;1.60;;
9106;SDS011;4589;48.690;8.952;2023-03-08T13:24:00;1.60;;;1.33;;
9106;SDS011;4589;48.690;8.952;2023-03-08T13:29:11;1.80;;;1.70;;
9106;SDS011;4589;48.690;8.952;2023-03-08T13:31:42;1.93;;;1.53;;
9106;SDS011;4589;48.690;8.952;2023-03-08T13:34:26;2.03;;;1.67;;
9106;SDS011;4589;48.690;8.952;2023-03-08T13:36:56;2.07;;;1.40;;
9106;SDS011;4589;48.690;8.952;2023-03-08T13:39:23;1.80;;;1.50;;
9106;SDS011;4589;48.690;8.952;2023-03-08T13:41:51;1.60;;;1.33;;
9106;SDS011;4589;48.690;8.952;2023-03-08T13:44:20;2.80;;;1.43;;
9106;SDS011;4589;48.690;8.952;2023-03-08T13:46:45;4.70;;;1.30;;
9106;SDS011;4589;48.690;8.952;2023-03-08T13:51:40;1.53;;;1.30;;
9106;SDS011;4589;48.690;8.952;2023-03-08T13:54:14;1.17;;;1.00;;
9106;SDS011;4589;48.690;8.952;2023-03-08T13:56:42;1.40;;;1.20;;
9106;SDS011;4589;48.690;8.952;2023-03-08T13:59:15;2.20;;;1.20;;
9106;SDS011;4589;48.690;8.952;2023-03-08T14:01:47;1.40;;;1.07;;
9106;SDS011;4589;48.690;8.952;2023-03-08T14:04:18;1.30;;;1.10;;
9106;SDS011;4589;48.690;8.952;2023-03-08T14:06:52;1.13;;;0.93;;
9106;SDS011;4589;48.690;8.952;2023-03-08T14:09:19;2.23;;;1.20;;
9106;SDS011;4589;48.690;8.952;2023-03-08T14:11:49;1.30;;;0.90;;
9106;SDS011;4589;48.690;8.952;2023-03-08T14:14:32;1.40;;;1.00;;
9106;SDS011;4589;48.690;8.952;2023-03-08T14:17:04;1.60;;;1.10;;
9106;SDS011;4589;48.690;8.952;2023-03-08T14:19:34;1.30;;;1.00;;
9106;SDS011;4589;48.690;8.952;2023-03-08T14:22:13;1.93;;;1.77;;
9106;SDS011;4589;48.690;8.952;2023-03-08T14:24:41;1.30;;;1.10;;
9106;SDS011;4589;48.690;8.952;2023-03-08T14:29:41;1.50;;;0.90;;
9106;SDS011;4589;48.690;8.952;2023-03-08T14:34:43;1.30;;;0.90;;
9106;SDS011;4589;48.690;8.952;2023-03-08T14:39:36;1.00;;;0.80;;
9106;SDS011;4589;48.690;8.952;2023-03-08T14:42:10;1.93;;;1.00;;
9106;SDS011;4589;48.690;8.952;2023-03-08T14:45:15;1.20;;;0.90;;
9106;SDS011;4589;48.690;8.952;2023-03-08T14:47:55;1.60;;;1.10;;
9106;SDS011;4589;48.690;8.952;2023-03-08T14:50:23;1.00;;;0.90;;
9106;SDS011;4589;48.690;8.952;2023-03-08T14:52:55;1.17;;;1.00;;
9106;SDS011;4589;48.690;8.952;2023-03-08T14:57:50;1.10;;;0.90;;
9106;SDS011;4589;48.690;8.952;2023-03-08T15:00:18;1.00;;;0.90;;
9106;SDS011;4589;48.690;8.952;2023-03-08T15:02:44;1.27;;;1.17;;
9106;SDS011;4589;48.690;8.952;2023-03-08T15:05:16;1.23;;;1.13;;
9106;SDS011;4589;48.690;8.952;2023-03-08T15:07:44;1.30;;;1.10;;
9106;SDS011;4589;48.690;8.952;2023-03-08T15:12:54;1.27;;;1.17;;
9106;SDS011;4589;48.690;8.952;2023-03-08T15:15:20;1.80;;;1.20;;
9106;SDS011;4589;48.690;8.952;2023-03-08T15:17:46;1.63;;;1.10;;
9106;SDS011;4589;48.690;8.952;2023-03-08T15:20:13;1.20;;;1.10;;
9106;SDS011;4589;48.690;8.952;2023-03-08T15:22:46;2.63;;;1.03;;
9106;SDS011;4589;48.690;8.952;2023-03-08T15:25:15;1.27;;;1.17;;
9106;SDS011;4589;48.690;8.952;2023-03-08T15:28:09;1.30;;;1.20;;
9106;SDS011;4589;48.690;8.952;2023-03-08T15:30:41;1.50;;;1.40;;
9106;SDS011;4589;48.690;8.952;2023-03-08T15:33:07;1.30;;;1.10;;
9106;SDS011;4589;48.690;8.952;2023-03-08T15:35:33;1.53;;;1.10;;
9106;SDS011;4589;48.690;8.952;2023-03-08T15:37:59;1.43;;;0.97;;
9106;SDS011;4589;48.690;8.952;2023-03-08T15:40:27;1.70;;;1.00;;
9106;SDS011;4589;48.690;8.952;2023-03-08T15:42:54;1.20;;;1.10;;
9106;SDS011;4589;48.690;8.952;2023-03-08T15:45:20;1.10;;;0.93;;
9106;SDS011;4589;48.690;8.952;2023-03-08T15:50:50;2.47;;;1.27;;
9106;SDS011;4589;48.690;8.952;2023-03-08T15:53:16;1.50;;;1.10;;
9106;SDS011;4589;48.690;8.952;2023-03-08T15:55:42;1.80;;;1.40;;
9106;SDS011;4589;48.690;8.952;2023-03-08T15:58:08;1.17;;;0.80;;
9106;SDS011;4589;48.690;8.952;2023-03-08T16:00:34;1.93;;;1.27;;
9106;SDS011;4589;48.690;8.952;2023-03-08T16:03:00;1.40;;;1.03;;
9106;SDS011;4589;48.690;8.952;2023-03-08T16:05:26;1.10;;;1.00;;
9106;SDS011;4589;48.690;8.952;2023-03-08T16:07:53;1.97;;;0.87;;
9106;SDS011;4589;48.690;8.952;2023-03-08T16:10:19;3.80;;;1.10;;
9106;SDS011;4589;48.690;8.952;2023-03-08T16:12:45;1.13;;;1.03;;
9106;SDS011;4589;48.690;8.952;2023-03-08T16:15:11;1.20;;;1.10;;
9106;SDS011;4589;48.690;8.952;2023-03-08T16:17:37;1.20;;;1.03;;
9106;SDS011;4589;48.690;8.952;2023-03-08T16:20:03;1.47;;;1.37;;
9106;SDS011;4589;48.690;8.952;2023-03-08T16:22:30;3.30;;;1.83;;
9106;SDS011;4589;48.690;8.952;2023-03-08T16:24:57;3.10;;;1.10;;
9106;SDS011;4589;48.690;8.952;2023-03-08T16:27:22;1.63;;;0.90;;
9106;SDS011;4589;48.690;8.952;2023-03-08T16:29:49;1.10;;;0.90;;
9106;SDS011;4589;48.690;8.952;2023-03-08T16:32:16;10.33;;;1.30;;
9106;SDS011;4589;48.690;8.952;2023-03-08T16:34:42;1.40;;;1.00;;
9106;SDS011;4589;48.690;8.952;2023-03-08T16:37:08;2.03;;;1.00;;
9106;SDS011;4589;48.690;8.952;2023-03-08T16:39:34;1.13;;;1.03;;
9106;SDS011;4589;48.690;8.952;2023-03-08T16:42:00;1.33;;;0.90;;
9106;SDS011;4589;48.690;8.952;2023-03-08T16:44:27;4.70;;;1.17;;
9106;SDS011;4589;48.690;8.952;2023-03-08T16:46:54;1.07;;;0.97;;
9106;SDS011;4589;48.690;8.952;2023-03-08T16:49:20;1.53;;;1.07;;
9106;SDS011;4589;48.690;8.952;2023-03-08T16:51:47;2.23;;;1.17;;
9106;SDS011;4589;48.690;8.952;2023-03-08T16:54:16;1.93;;;1.30;;
9106;SDS011;4589;48.690;8.952;2023-03-08T16:56:42;1.40;;;1.30;;